KTTN/TTN METAR and TAF weather

Enter ICAO airport designator
Station Type Date Time Source
KTTN METAR 2022/06/30 13:53 UTC NOAA

KTTN 301353Z 00000KT 10SM CLR 25/15 A3022 RMK AO2 SLP226 T02500150


Station Type Date Time Source
KTTN Decoded METAR 2022/06/30 13:53 UTC NOAA

TRENTON MERCER COUNTY AIRPORT , NJ, United States (KTTN) 40-17N 074-49W 59M
Jun 30, 2022 - 09:53 AM EDT / 2022.06.30 1353 UTC
Wind: Calm:0
Visibility: 10 mile(s):0
Sky conditions: clear
Temperature: 77.0 F (25.0 C)
Dew Point: 59.0 F (15.0 C)
Relative Humidity: 53%
Pressure (altimeter): 30.22 in. Hg (1023 hPa)
ob: KTTN 301353Z 00000KT 10SM CLR 25/15 A3022 RMK AO2 SLP226 T02500150
cycle: 14

Station Type Date Time Source
KTTN TAF 2022/06/30 12:22 UTC NOAA

TAF KTTN 301120Z 3012/0112 33005KT P6SM SKC
FM301700 29007KT P6SM SKC
FM302200 25004KT P6SM SKC
FM010200 22003KT P6SM SKC

Example: see airport list